sensor_id;sensor_type;location;lat;lon;timestamp;P1;durP1;ratioP1;P2;durP2;ratioP2
4638;SDS011;2332;38.646;-9.154;2023-09-30T00:00:23;8.13;;;5.20;;
4638;SDS011;2332;38.646;-9.154;2023-09-30T00:02:49;7.20;;;4.20;;
4638;SDS011;2332;38.646;-9.154;2023-09-30T00:05:15;6.63;;;3.87;;
4638;SDS011;2332;38.646;-9.154;2023-09-30T00:07:40;8.00;;;4.03;;
4638;SDS011;2332;38.646;-9.154;2023-09-30T00:10:06;10.33;;;4.50;;
4638;SDS011;2332;38.646;-9.154;2023-09-30T00:12:31;7.57;;;4.23;;
4638;SDS011;2332;38.646;-9.154;2023-09-30T00:14:57;7.87;;;3.50;;
4638;SDS011;2332;38.646;-9.154;2023-09-30T00:17:22;7.50;;;4.30;;
4638;SDS011;2332;38.646;-9.154;2023-09-30T00:19:48;7.30;;;4.17;;
4638;SDS011;2332;38.646;-9.154;2023-09-30T00:22:13;8.17;;;3.87;;
4638;SDS011;2332;38.646;-9.154;2023-09-30T00:24:39;6.27;;;3.13;;
4638;SDS011;2332;38.646;-9.154;2023-09-30T00:27:04;6.90;;;3.20;;
4638;SDS011;2332;38.646;-9.154;2023-09-30T00:29:29;7.93;;;3.90;;
4638;SDS011;2332;38.646;-9.154;2023-09-30T00:31:55;5.90;;;3.40;;
4638;SDS011;2332;38.646;-9.154;2023-09-30T00:34:20;10.50;;;3.50;;
4638;SDS011;2332;38.646;-9.154;2023-09-30T00:36:46;7.40;;;3.70;;
4638;SDS011;2332;38.646;-9.154;2023-09-30T00:39:12;4.83;;;3.27;;
4638;SDS011;2332;38.646;-9.154;2023-09-30T00:41:40;6.67;;;3.30;;
4638;SDS011;2332;38.646;-9.154;2023-09-30T00:44:06;9.80;;;3.90;;
4638;SDS011;2332;38.646;-9.154;2023-09-30T00:46:33;4.53;;;3.40;;
4638;SDS011;2332;38.646;-9.154;2023-09-30T00:49:00;14.33;;;4.73;;
4638;SDS011;2332;38.646;-9.154;2023-09-30T00:51:26;6.60;;;3.40;;
4638;SDS011;2332;38.646;-9.154;2023-09-30T00:53:52;8.13;;;3.33;;
4638;SDS011;2332;38.646;-9.154;2023-09-30T00:56:18;7.87;;;3.40;;
4638;SDS011;2332;38.646;-9.154;2023-09-30T00:58:43;7.70;;;3.63;;
4638;SDS011;2332;38.646;-9.154;2023-09-30T01:01:09;7.93;;;3.60;;
4638;SDS011;2332;38.646;-9.154;2023-09-30T01:03:36;7.37;;;3.60;;
4638;SDS011;2332;38.646;-9.154;2023-09-30T01:06:01;5.30;;;3.20;;
4638;SDS011;2332;38.646;-9.154;2023-09-30T01:08:27;9.00;;;3.80;;
4638;SDS011;2332;38.646;-9.154;2023-09-30T01:10:53;8.63;;;3.80;;
4638;SDS011;2332;38.646;-9.154;2023-09-30T01:13:18;8.63;;;3.33;;
4638;SDS011;2332;38.646;-9.154;2023-09-30T01:15:43;13.20;;;3.80;;
4638;SDS011;2332;38.646;-9.154;2023-09-30T01:18:09;9.50;;;4.00;;
4638;SDS011;2332;38.646;-9.154;2023-09-30T01:20:36;13.07;;;3.77;;
4638;SDS011;2332;38.646;-9.154;2023-09-30T01:23:02;14.33;;;3.90;;
4638;SDS011;2332;38.646;-9.154;2023-09-30T01:25:28;10.70;;;3.77;;
4638;SDS011;2332;38.646;-9.154;2023-09-30T01:27:54;15.80;;;4.07;;
4638;SDS011;2332;38.646;-9.154;2023-09-30T01:30:19;7.37;;;3.70;;
4638;SDS011;2332;38.646;-9.154;2023-09-30T01:32:47;15.27;;;4.90;;
4638;SDS011;2332;38.646;-9.154;2023-09-30T01:35:13;7.97;;;3.63;;
4638;SDS011;2332;38.646;-9.154;2023-09-30T01:37:38;18.40;;;4.40;;
4638;SDS011;2332;38.646;-9.154;2023-09-30T01:40:04;6.40;;;3.93;;
4638;SDS011;2332;38.646;-9.154;2023-09-30T01:42:32;11.40;;;4.53;;
4638;SDS011;2332;38.646;-9.154;2023-09-30T01:44:58;12.70;;;3.57;;
4638;SDS011;2332;38.646;-9.154;2023-09-30T01:47:23;16.17;;;3.93;;
4638;SDS011;2332;38.646;-9.154;2023-09-30T01:49:49;9.63;;;4.20;;
4638;SDS011;2332;38.646;-9.154;2023-09-30T01:52:14;9.70;;;4.10;;
4638;SDS011;2332;38.646;-9.154;2023-09-30T01:54:40;6.90;;;3.70;;
4638;SDS011;2332;38.646;-9.154;2023-09-30T01:57:05;9.80;;;4.13;;
4638;SDS011;2332;38.646;-9.154;2023-09-30T01:59:31;6.87;;;4.40;;
4638;SDS011;2332;38.646;-9.154;2023-09-30T02:01:56;14.33;;;4.10;;
4638;SDS011;2332;38.646;-9.154;2023-09-30T02:04:22;7.20;;;4.00;;
4638;SDS011;2332;38.646;-9.154;2023-09-30T02:06:48;6.23;;;3.70;;
4638;SDS011;2332;38.646;-9.154;2023-09-30T02:09:13;9.93;;;4.20;;
4638;SDS011;2332;38.646;-9.154;2023-09-30T02:11:39;5.13;;;4.07;;
4638;SDS011;2332;38.646;-9.154;2023-09-30T02:14:06;6.57;;;4.60;;
4638;SDS011;2332;38.646;-9.154;2023-09-30T02:16:31;8.70;;;3.80;;
4638;SDS011;2332;38.646;-9.154;2023-09-30T02:18:57;6.13;;;3.70;;
4638;SDS011;2332;38.646;-9.154;2023-09-30T02:21:23;6.73;;;4.00;;
4638;SDS011;2332;38.646;-9.154;2023-09-30T02:23:48;6.87;;;3.90;;
4638;SDS011;2332;38.646;-9.154;2023-09-30T02:26:14;7.23;;;3.50;;
4638;SDS011;2332;38.646;-9.154;2023-09-30T02:28:40;6.50;;;3.63;;
4638;SDS011;2332;38.646;-9.154;2023-09-30T02:31:05;7.63;;;4.23;;
4638;SDS011;2332;38.646;-9.154;2023-09-30T02:33:32;13.40;;;4.67;;
4638;SDS011;2332;38.646;-9.154;2023-09-30T02:36:00;7.70;;;3.67;;
4638;SDS011;2332;38.646;-9.154;2023-09-30T02:38:25;14.47;;;4.10;;
4638;SDS011;2332;38.646;-9.154;2023-09-30T02:40:51;8.27;;;3.80;;
4638;SDS011;2332;38.646;-9.154;2023-09-30T02:43:16;9.00;;;4.67;;
4638;SDS011;2332;38.646;-9.154;2023-09-30T02:45:42;11.47;;;4.10;;
4638;SDS011;2332;38.646;-9.154;2023-09-30T02:48:08;13.33;;;4.70;;
4638;SDS011;2332;38.646;-9.154;2023-09-30T02:50:34;5.43;;;3.83;;
4638;SDS011;2332;38.646;-9.154;2023-09-30T02:52:59;7.50;;;3.90;;
4638;SDS011;2332;38.646;-9.154;2023-09-30T02:55:25;6.00;;;3.63;;
4638;SDS011;2332;38.646;-9.154;2023-09-30T02:57:50;6.30;;;3.80;;
4638;SDS011;2332;38.646;-9.154;2023-09-30T03:00:16;5.47;;;4.33;;
4638;SDS011;2332;38.646;-9.154;2023-09-30T03:02:54;5.03;;;3.73;;
4638;SDS011;2332;38.646;-9.154;2023-09-30T03:05:20;6.30;;;3.77;;
4638;SDS011;2332;38.646;-9.154;2023-09-30T03:07:45;11.37;;;4.73;;
4638;SDS011;2332;38.646;-9.154;2023-09-30T03:10:11;18.90;;;4.30;;
4638;SDS011;2332;38.646;-9.154;2023-09-30T03:12:38;4.17;;;3.63;;
4638;SDS011;2332;38.646;-9.154;2023-09-30T03:15:04;6.10;;;4.30;;
4638;SDS011;2332;38.646;-9.154;2023-09-30T03:17:30;10.67;;;4.13;;
4638;SDS011;2332;38.646;-9.154;2023-09-30T03:19:55;9.73;;;4.50;;
4638;SDS011;2332;38.646;-9.154;2023-09-30T03:22:22;5.30;;;3.63;;
4638;SDS011;2332;38.646;-9.154;2023-09-30T03:24:48;6.90;;;4.27;;
4638;SDS011;2332;38.646;-9.154;2023-09-30T03:27:13;6.13;;;4.30;;
4638;SDS011;2332;38.646;-9.154;2023-09-30T03:29:39;6.53;;;4.03;;
4638;SDS011;2332;38.646;-9.154;2023-09-30T03:32:06;9.53;;;4.23;;
4638;SDS011;2332;38.646;-9.154;2023-09-30T03:34:31;6.27;;;4.40;;
4638;SDS011;2332;38.646;-9.154;2023-09-30T03:36:56;20.63;;;5.40;;
4638;SDS011;2332;38.646;-9.154;2023-09-30T03:39:24;8.93;;;4.20;;
4638;SDS011;2332;38.646;-9.154;2023-09-30T03:41:53;9.43;;;4.33;;
4638;SDS011;2332;38.646;-9.154;2023-09-30T03:44:19;6.40;;;4.20;;
4638;SDS011;2332;38.646;-9.154;2023-09-30T03:46:44;8.60;;;4.10;;
4638;SDS011;2332;38.646;-9.154;2023-09-30T03:49:10;6.33;;;3.97;;
4638;SDS011;2332;38.646;-9.154;2023-09-30T03:51:35;9.20;;;4.60;;
4638;SDS011;2332;38.646;-9.154;2023-09-30T03:54:02;8.30;;;4.87;;
4638;SDS011;2332;38.646;-9.154;2023-09-30T03:56:27;11.00;;;4.93;;
4638;SDS011;2332;38.646;-9.154;2023-09-30T03:58:53;9.30;;;5.00;;
4638;SDS011;2332;38.646;-9.154;2023-09-30T04:01:18;14.43;;;4.67;;
4638;SDS011;2332;38.646;-9.154;2023-09-30T04:03:44;6.30;;;4.40;;
4638;SDS011;2332;38.646;-9.154;2023-09-30T04:06:10;5.87;;;5.00;;
4638;SDS011;2332;38.646;-9.154;2023-09-30T04:08:35;8.63;;;4.60;;
4638;SDS011;2332;38.646;-9.154;2023-09-30T04:11:02;10.47;;;5.40;;
4638;SDS011;2332;38.646;-9.154;2023-09-30T04:13:28;7.40;;;4.53;;
4638;SDS011;2332;38.646;-9.154;2023-09-30T04:15:54;6.87;;;4.97;;
4638;SDS011;2332;38.646;-9.154;2023-09-30T04:18:19;12.87;;;5.20;;
4638;SDS011;2332;38.646;-9.154;2023-09-30T04:20:47;17.23;;;5.10;;
4638;SDS011;2332;38.646;-9.154;2023-09-30T04:23:13;10.20;;;4.87;;
4638;SDS011;2332;38.646;-9.154;2023-09-30T04:25:39;12.13;;;5.53;;
4638;SDS011;2332;38.646;-9.154;2023-09-30T04:28:05;10.37;;;5.33;;
4638;SDS011;2332;38.646;-9.154;2023-09-30T04:30:31;8.40;;;5.50;;
4638;SDS011;2332;38.646;-9.154;2023-09-30T04:32:58;18.33;;;6.40;;
4638;SDS011;2332;38.646;-9.154;2023-09-30T04:35:23;7.30;;;5.63;;
4638;SDS011;2332;38.646;-9.154;2023-09-30T04:37:50;14.30;;;5.30;;
4638;SDS011;2332;38.646;-9.154;2023-09-30T04:40:16;10.67;;;6.73;;
4638;SDS011;2332;38.646;-9.154;2023-09-30T04:42:44;8.80;;;5.43;;
4638;SDS011;2332;38.646;-9.154;2023-09-30T04:45:11;9.27;;;5.20;;
4638;SDS011;2332;38.646;-9.154;2023-09-30T04:47:37;11.00;;;5.57;;
4638;SDS011;2332;38.646;-9.154;2023-09-30T04:50:05;14.10;;;5.70;;
4638;SDS011;2332;38.646;-9.154;2023-09-30T04:52:32;11.80;;;5.10;;
4638;SDS011;2332;38.646;-9.154;2023-09-30T04:54:58;9.80;;;5.17;;
4638;SDS011;2332;38.646;-9.154;2023-09-30T04:57:25;7.60;;;6.13;;
4638;SDS011;2332;38.646;-9.154;2023-09-30T04:59:51;16.90;;;7.23;;
4638;SDS011;2332;38.646;-9.154;2023-09-30T05:02:16;13.60;;;6.17;;
4638;SDS011;2332;38.646;-9.154;2023-09-30T05:04:42;9.83;;;5.67;;
4638;SDS011;2332;38.646;-9.154;2023-09-30T05:07:10;14.60;;;6.20;;
4638;SDS011;2332;38.646;-9.154;2023-09-30T05:09:35;10.60;;;6.73;;
4638;SDS011;2332;38.646;-9.154;2023-09-30T05:12:01;9.57;;;6.20;;
4638;SDS011;2332;38.646;-9.154;2023-09-30T05:14:26;18.73;;;7.07;;
4638;SDS011;2332;38.646;-9.154;2023-09-30T05:16:54;12.83;;;6.93;;
4638;SDS011;2332;38.646;-9.154;2023-09-30T05:19:19;9.47;;;7.17;;
4638;SDS011;2332;38.646;-9.154;2023-09-30T05:21:46;13.13;;;8.00;;
4638;SDS011;2332;38.646;-9.154;2023-09-30T05:24:11;13.93;;;8.00;;
4638;SDS011;2332;38.646;-9.154;2023-09-30T05:26:36;10.17;;;7.87;;
4638;SDS011;2332;38.646;-9.154;2023-09-30T05:29:02;15.70;;;8.17;;
4638;SDS011;2332;38.646;-9.154;2023-09-30T05:31:27;15.40;;;8.27;;
4638;SDS011;2332;38.646;-9.154;2023-09-30T05:33:53;15.00;;;8.27;;
4638;SDS011;2332;38.646;-9.154;2023-09-30T05:36:18;10.00;;;7.30;;
4638;SDS011;2332;38.646;-9.154;2023-09-30T05:38:45;16.53;;;7.03;;
4638;SDS011;2332;38.646;-9.154;2023-09-30T05:41:10;17.03;;;7.97;;
4638;SDS011;2332;38.646;-9.154;2023-09-30T05:43:38;14.23;;;8.40;;
4638;SDS011;2332;38.646;-9.154;2023-09-30T05:46:03;15.33;;;7.43;;
4638;SDS011;2332;38.646;-9.154;2023-09-30T05:48:29;17.93;;;7.77;;
4638;SDS011;2332;38.646;-9.154;2023-09-30T05:50:54;10.23;;;7.47;;
4638;SDS011;2332;38.646;-9.154;2023-09-30T05:53:20;13.40;;;7.20;;
4638;SDS011;2332;38.646;-9.154;2023-09-30T05:55:46;12.10;;;6.90;;
4638;SDS011;2332;38.646;-9.154;2023-09-30T05:58:12;9.80;;;7.00;;
4638;SDS011;2332;38.646;-9.154;2023-09-30T06:00:39;11.27;;;7.43;;
4638;SDS011;2332;38.646;-9.154;2023-09-30T06:03:05;15.00;;;7.17;;
4638;SDS011;2332;38.646;-9.154;2023-09-30T06:05:31;12.37;;;8.17;;
4638;SDS011;2332;38.646;-9.154;2023-09-30T06:07:58;12.40;;;7.30;;
4638;SDS011;2332;38.646;-9.154;2023-09-30T06:10:23;11.77;;;7.53;;
4638;SDS011;2332;38.646;-9.154;2023-09-30T06:12:51;17.73;;;8.20;;
4638;SDS011;2332;38.646;-9.154;2023-09-30T06:15:25;13.77;;;8.20;;
4638;SDS011;2332;38.646;-9.154;2023-09-30T06:17:51;12.80;;;7.90;;
4638;SDS011;2332;38.646;-9.154;2023-09-30T06:20:17;11.17;;;7.20;;
4638;SDS011;2332;38.646;-9.154;2023-09-30T06:22:43;9.20;;;7.30;;
4638;SDS011;2332;38.646;-9.154;2023-09-30T06:25:10;15.43;;;8.10;;
4638;SDS011;2332;38.646;-9.154;2023-09-30T06:27:36;13.67;;;8.40;;
4638;SDS011;2332;38.646;-9.154;2023-09-30T06:30:03;9.90;;;7.47;;
4638;SDS011;2332;38.646;-9.154;2023-09-30T06:32:30;18.13;;;8.20;;
4638;SDS011;2332;38.646;-9.154;2023-09-30T06:34:55;11.60;;;8.07;;
4638;SDS011;2332;38.646;-9.154;2023-09-30T06:37:21;17.77;;;8.53;;
4638;SDS011;2332;38.646;-9.154;2023-09-30T06:39:47;20.47;;;8.60;;
4638;SDS011;2332;38.646;-9.154;2023-09-30T06:42:13;16.43;;;8.97;;
4638;SDS011;2332;38.646;-9.154;2023-09-30T06:44:38;13.53;;;7.93;;
4638;SDS011;2332;38.646;-9.154;2023-09-30T06:47:04;18.03;;;8.80;;
4638;SDS011;2332;38.646;-9.154;2023-09-30T06:49:29;15.50;;;8.40;;
4638;SDS011;2332;38.646;-9.154;2023-09-30T06:51:55;11.80;;;9.70;;
4638;SDS011;2332;38.646;-9.154;2023-09-30T06:54:21;14.10;;;9.70;;
4638;SDS011;2332;38.646;-9.154;2023-09-30T06:56:46;14.47;;;8.83;;
4638;SDS011;2332;38.646;-9.154;2023-09-30T06:59:11;16.33;;;8.97;;
4638;SDS011;2332;38.646;-9.154;2023-09-30T07:01:37;10.87;;;7.80;;
4638;SDS011;2332;38.646;-9.154;2023-09-30T07:04:02;20.00;;;9.20;;
4638;SDS011;2332;38.646;-9.154;2023-09-30T07:06:28;14.30;;;8.70;;
4638;SDS011;2332;38.646;-9.154;2023-09-30T07:08:53;11.83;;;8.50;;
4638;SDS011;2332;38.646;-9.154;2023-09-30T07:11:28;16.20;;;7.23;;
4638;SDS011;2332;38.646;-9.154;2023-09-30T07:13:59;11.40;;;8.33;;
4638;SDS011;2332;38.646;-9.154;2023-09-30T07:16:25;17.10;;;8.37;;
4638;SDS011;2332;38.646;-9.154;2023-09-30T07:18:51;13.30;;;7.93;;
4638;SDS011;2332;38.646;-9.154;2023-09-30T07:21:16;18.97;;;8.40;;
4638;SDS011;2332;38.646;-9.154;2023-09-30T07:23:42;15.13;;;8.00;;
4638;SDS011;2332;38.646;-9.154;2023-09-30T07:26:07;13.43;;;8.10;;
4638;SDS011;2332;38.646;-9.154;2023-09-30T07:28:33;12.40;;;8.03;;
4638;SDS011;2332;38.646;-9.154;2023-09-30T07:30:58;14.03;;;7.97;;
4638;SDS011;2332;38.646;-9.154;2023-09-30T07:33:24;19.90;;;8.10;;
4638;SDS011;2332;38.646;-9.154;2023-09-30T07:35:49;10.63;;;7.50;;
4638;SDS011;2332;38.646;-9.154;2023-09-30T07:38:14;19.77;;;8.67;;
4638;SDS011;2332;38.646;-9.154;2023-09-30T07:40:40;13.13;;;7.23;;
4638;SDS011;2332;38.646;-9.154;2023-09-30T07:43:05;17.80;;;8.07;;
4638;SDS011;2332;38.646;-9.154;2023-09-30T07:45:31;14.70;;;7.87;;
4638;SDS011;2332;38.646;-9.154;2023-09-30T07:47:56;16.73;;;8.97;;
4638;SDS011;2332;38.646;-9.154;2023-09-30T07:50:23;21.27;;;8.90;;
4638;SDS011;2332;38.646;-9.154;2023-09-30T07:52:49;14.87;;;9.13;;
4638;SDS011;2332;38.646;-9.154;2023-09-30T07:55:14;12.67;;;8.90;;
4638;SDS011;2332;38.646;-9.154;2023-09-30T07:57:40;17.93;;;8.70;;
4638;SDS011;2332;38.646;-9.154;2023-09-30T08:00:09;19.83;;;9.30;;
4638;SDS011;2332;38.646;-9.154;2023-09-30T08:02:40;18.50;;;10.53;;
4638;SDS011;2332;38.646;-9.154;2023-09-30T08:05:05;19.13;;;9.93;;
4638;SDS011;2332;38.646;-9.154;2023-09-30T08:07:31;13.50;;;10.00;;
4638;SDS011;2332;38.646;-9.154;2023-09-30T08:09:56;14.30;;;10.27;;
4638;SDS011;2332;38.646;-9.154;2023-09-30T08:12:22;14.70;;;9.77;;
4638;SDS011;2332;38.646;-9.154;2023-09-30T08:14:47;14.80;;;10.33;;
4638;SDS011;2332;38.646;-9.154;2023-09-30T08:17:14;21.53;;;10.40;;
4638;SDS011;2332;38.646;-9.154;2023-09-30T08:19:39;18.70;;;10.47;;
4638;SDS011;2332;38.646;-9.154;2023-09-30T08:22:05;18.47;;;10.77;;
4638;SDS011;2332;38.646;-9.154;2023-09-30T08:24:31;19.13;;;10.43;;
4638;SDS011;2332;38.646;-9.154;2023-09-30T08:26:57;17.67;;;10.87;;
4638;SDS011;2332;38.646;-9.154;2023-09-30T08:29:22;15.70;;;10.40;;
4638;SDS011;2332;38.646;-9.154;2023-09-30T08:31:48;17.50;;;11.13;;
4638;SDS011;2332;38.646;-9.154;2023-09-30T08:34:15;20.70;;;10.80;;
4638;SDS011;2332;38.646;-9.154;2023-09-30T08:36:42;19.97;;;10.50;;
4638;SDS011;2332;38.646;-9.154;2023-09-30T08:39:10;14.13;;;10.17;;
4638;SDS011;2332;38.646;-9.154;2023-09-30T08:41:39;14.50;;;10.37;;
4638;SDS011;2332;38.646;-9.154;2023-09-30T08:44:04;40.23;;;9.57;;
4638;SDS011;2332;38.646;-9.154;2023-09-30T08:46:33;13.50;;;9.57;;
4638;SDS011;2332;38.646;-9.154;2023-09-30T08:49:02;17.27;;;9.40;;
4638;SDS011;2332;38.646;-9.154;2023-09-30T08:51:28;12.43;;;8.87;;
4638;SDS011;2332;38.646;-9.154;2023-09-30T08:53:54;24.20;;;9.53;;
4638;SDS011;2332;38.646;-9.154;2023-09-30T08:56:22;16.37;;;9.60;;
4638;SDS011;2332;38.646;-9.154;2023-09-30T08:58:49;12.20;;;8.47;;
4638;SDS011;2332;38.646;-9.154;2023-09-30T09:01:15;18.57;;;8.97;;
4638;SDS011;2332;38.646;-9.154;2023-09-30T09:03:41;17.00;;;9.80;;
4638;SDS011;2332;38.646;-9.154;2023-09-30T09:06:06;16.90;;;9.70;;
4638;SDS011;2332;38.646;-9.154;2023-09-30T09:08:32;16.83;;;9.50;;
4638;SDS011;2332;38.646;-9.154;2023-09-30T09:10:58;15.30;;;10.40;;
4638;SDS011;2332;38.646;-9.154;2023-09-30T09:13:24;16.23;;;8.97;;
4638;SDS011;2332;38.646;-9.154;2023-09-30T09:16:04;20.17;;;9.53;;
4638;SDS011;2332;38.646;-9.154;2023-09-30T09:18:33;14.27;;;9.40;;
4638;SDS011;2332;38.646;-9.154;2023-09-30T09:21:12;15.27;;;9.33;;
4638;SDS011;2332;38.646;-9.154;2023-09-30T09:23:41;19.73;;;8.50;;
4638;SDS011;2332;38.646;-9.154;2023-09-30T09:26:07;22.70;;;9.20;;
4638;SDS011;2332;38.646;-9.154;2023-09-30T09:28:36;14.93;;;9.20;;
4638;SDS011;2332;38.646;-9.154;2023-09-30T09:31:12;17.47;;;8.20;;
4638;SDS011;2332;38.646;-9.154;2023-09-30T09:33:43;18.20;;;7.70;;
4638;SDS011;2332;38.646;-9.154;2023-09-30T09:36:09;17.63;;;7.77;;
4638;SDS011;2332;38.646;-9.154;2023-09-30T09:38:44;9.97;;;6.80;;
4638;SDS011;2332;38.646;-9.154;2023-09-30T09:41:09;18.90;;;7.70;;
4638;SDS011;2332;38.646;-9.154;2023-09-30T09:43:36;8.50;;;6.70;;
4638;SDS011;2332;38.646;-9.154;2023-09-30T09:46:02;14.47;;;7.77;;
4638;SDS011;2332;38.646;-9.154;2023-09-30T09:48:29;12.87;;;7.37;;
4638;SDS011;2332;38.646;-9.154;2023-09-30T09:50:55;9.83;;;6.43;;
4638;SDS011;2332;38.646;-9.154;2023-09-30T09:53:21;11.03;;;6.97;;
4638;SDS011;2332;38.646;-9.154;2023-09-30T09:55:48;16.17;;;6.70;;
4638;SDS011;2332;38.646;-9.154;2023-09-30T09:58:15;10.30;;;6.27;;
4638;SDS011;2332;38.646;-9.154;2023-09-30T10:00:41;13.67;;;7.20;;
4638;SDS011;2332;38.646;-9.154;2023-09-30T10:03:06;14.27;;;6.80;;
4638;SDS011;2332;38.646;-9.154;2023-09-30T10:05:32;13.87;;;7.50;;
4638;SDS011;2332;38.646;-9.154;2023-09-30T10:07:59;18.23;;;10.20;;
4638;SDS011;2332;38.646;-9.154;2023-09-30T10:10:25;12.80;;;7.53;;
4638;SDS011;2332;38.646;-9.154;2023-09-30T10:12:51;16.73;;;8.03;;
4638;SDS011;2332;38.646;-9.154;2023-09-30T10:18:01;16.17;;;7.70;;
4638;SDS011;2332;38.646;-9.154;2023-09-30T10:20:30;13.17;;;8.73;;
4638;SDS011;2332;38.646;-9.154;2023-09-30T10:25:40;15.07;;;8.83;;
4638;SDS011;2332;38.646;-9.154;2023-09-30T10:36:31;22.87;;;13.63;;
4638;SDS011;2332;38.646;-9.154;2023-09-30T10:39:00;18.63;;;10.83;;
4638;SDS011;2332;38.646;-9.154;2023-09-30T10:46:53;27.47;;;15.27;;
4638;SDS011;2332;38.646;-9.154;2023-09-30T10:51:48;25.13;;;14.37;;
4638;SDS011;2332;38.646;-9.154;2023-09-30T10:54:14;25.60;;;13.10;;
4638;SDS011;2332;38.646;-9.154;2023-09-30T10:56:39;21.40;;;13.17;;
4638;SDS011;2332;38.646;-9.154;2023-09-30T10:59:04;26.10;;;13.70;;
4638;SDS011;2332;38.646;-9.154;2023-09-30T11:01:33;23.70;;;11.80;;
4638;SDS011;2332;38.646;-9.154;2023-09-30T11:03:59;22.00;;;13.70;;
4638;SDS011;2332;38.646;-9.154;2023-09-30T11:06:28;23.30;;;12.07;;
4638;SDS011;2332;38.646;-9.154;2023-09-30T11:08:58;15.80;;;11.20;;
4638;SDS011;2332;38.646;-9.154;2023-09-30T11:11:38;19.13;;;9.50;;
4638;SDS011;2332;38.646;-9.154;2023-09-30T11:14:26;19.03;;;8.57;;
4638;SDS011;2332;38.646;-9.154;2023-09-30T11:16:51;21.90;;;10.67;;
4638;SDS011;2332;38.646;-9.154;2023-09-30T11:19:16;20.40;;;8.40;;
4638;SDS011;2332;38.646;-9.154;2023-09-30T11:21:42;16.17;;;8.53;;
4638;SDS011;2332;38.646;-9.154;2023-09-30T11:24:11;12.60;;;7.37;;
4638;SDS011;2332;38.646;-9.154;2023-09-30T11:26:37;13.53;;;6.10;;
4638;SDS011;2332;38.646;-9.154;2023-09-30T11:29:09;13.00;;;7.40;;
4638;SDS011;2332;38.646;-9.154;2023-09-30T11:31:37;12.07;;;6.70;;
4638;SDS011;2332;38.646;-9.154;2023-09-30T11:34:02;10.73;;;6.07;;
4638;SDS011;2332;38.646;-9.154;2023-09-30T11:36:32;9.10;;;5.80;;
4638;SDS011;2332;38.646;-9.154;2023-09-30T11:39:00;8.07;;;6.40;;
4638;SDS011;2332;38.646;-9.154;2023-09-30T11:41:35;13.03;;;5.97;;
4638;SDS011;2332;38.646;-9.154;2023-09-30T11:46:32;10.40;;;5.03;;
4638;SDS011;2332;38.646;-9.154;2023-09-30T11:49:01;7.13;;;4.30;;
4638;SDS011;2332;38.646;-9.154;2023-09-30T11:51:28;9.37;;;5.53;;
4638;SDS011;2332;38.646;-9.154;2023-09-30T11:53:54;8.27;;;4.50;;
4638;SDS011;2332;38.646;-9.154;2023-09-30T11:56:20;6.87;;;4.77;;
4638;SDS011;2332;38.646;-9.154;2023-09-30T11:58:45;7.40;;;4.30;;
4638;SDS011;2332;38.646;-9.154;2023-09-30T12:01:14;9.20;;;5.97;;
4638;SDS011;2332;38.646;-9.154;2023-09-30T12:03:39;8.37;;;5.80;;
4638;SDS011;2332;38.646;-9.154;2023-09-30T12:06:07;11.93;;;5.10;;
4638;SDS011;2332;38.646;-9.154;2023-09-30T12:08:33;14.87;;;5.77;;
4638;SDS011;2332;38.646;-9.154;2023-09-30T12:10:58;8.87;;;4.73;;
4638;SDS011;2332;38.646;-9.154;2023-09-30T12:13:25;15.10;;;4.77;;
4638;SDS011;2332;38.646;-9.154;2023-09-30T12:15:50;7.63;;;4.70;;
4638;SDS011;2332;38.646;-9.154;2023-09-30T12:18:18;7.37;;;4.73;;
4638;SDS011;2332;38.646;-9.154;2023-09-30T12:20:48;7.63;;;5.10;;
4638;SDS011;2332;38.646;-9.154;2023-09-30T12:23:14;11.70;;;5.53;;
4638;SDS011;2332;38.646;-9.154;2023-09-30T12:25:39;7.97;;;5.43;;
4638;SDS011;2332;38.646;-9.154;2023-09-30T12:28:05;7.30;;;4.93;;
4638;SDS011;2332;38.646;-9.154;2023-09-30T12:30:30;15.37;;;6.03;;
4638;SDS011;2332;38.646;-9.154;2023-09-30T12:32:57;38.30;;;26.83;;
4638;SDS011;2332;38.646;-9.154;2023-09-30T12:35:22;25.47;;;13.17;;
4638;SDS011;2332;38.646;-9.154;2023-09-30T12:37:48;12.60;;;7.20;;
4638;SDS011;2332;38.646;-9.154;2023-09-30T12:40:13;9.43;;;5.50;;
4638;SDS011;2332;38.646;-9.154;2023-09-30T12:42:42;11.23;;;6.30;;
4638;SDS011;2332;38.646;-9.154;2023-09-30T12:45:08;14.10;;;7.03;;
4638;SDS011;2332;38.646;-9.154;2023-09-30T12:47:33;26.63;;;17.60;;
4638;SDS011;2332;38.646;-9.154;2023-09-30T12:49:59;17.57;;;9.20;;
4638;SDS011;2332;38.646;-9.154;2023-09-30T12:52:24;16.53;;;8.00;;
4638;SDS011;2332;38.646;-9.154;2023-09-30T12:54:50;14.90;;;8.33;;
4638;SDS011;2332;38.646;-9.154;2023-09-30T12:57:16;9.60;;;7.80;;
4638;SDS011;2332;38.646;-9.154;2023-09-30T12:59:45;14.77;;;5.13;;
4638;SDS011;2332;38.646;-9.154;2023-09-30T13:02:18;7.20;;;5.40;;
4638;SDS011;2332;38.646;-9.154;2023-09-30T13:04:44;14.70;;;10.00;;
4638;SDS011;2332;38.646;-9.154;2023-09-30T13:07:10;20.37;;;13.43;;
4638;SDS011;2332;38.646;-9.154;2023-09-30T13:09:36;11.40;;;5.03;;
4638;SDS011;2332;38.646;-9.154;2023-09-30T13:12:04;10.60;;;4.90;;
4638;SDS011;2332;38.646;-9.154;2023-09-30T13:14:29;7.73;;;5.57;;
4638;SDS011;2332;38.646;-9.154;2023-09-30T13:16:55;12.70;;;5.40;;
4638;SDS011;2332;38.646;-9.154;2023-09-30T13:19:20;8.73;;;4.70;;
4638;SDS011;2332;38.646;-9.154;2023-09-30T13:21:47;9.37;;;4.50;;
4638;SDS011;2332;38.646;-9.154;2023-09-30T13:24:12;5.97;;;4.13;;
4638;SDS011;2332;38.646;-9.154;2023-09-30T13:26:37;6.70;;;4.47;;
4638;SDS011;2332;38.646;-9.154;2023-09-30T13:29:03;7.33;;;3.30;;
4638;SDS011;2332;38.646;-9.154;2023-09-30T13:31:30;13.80;;;4.40;;
4638;SDS011;2332;38.646;-9.154;2023-09-30T13:33:56;16.77;;;4.10;;
4638;SDS011;2332;38.646;-9.154;2023-09-30T13:36:21;5.20;;;3.70;;
4638;SDS011;2332;38.646;-9.154;2023-09-30T13:38:46;5.80;;;3.60;;
4638;SDS011;2332;38.646;-9.154;2023-09-30T13:41:12;8.40;;;4.37;;
4638;SDS011;2332;38.646;-9.154;2023-09-30T13:43:37;11.03;;;4.17;;
4638;SDS011;2332;38.646;-9.154;2023-09-30T13:46:04;8.27;;;3.40;;
4638;SDS011;2332;38.646;-9.154;2023-09-30T13:48:32;6.73;;;3.33;;
4638;SDS011;2332;38.646;-9.154;2023-09-30T13:51:07;9.73;;;3.90;;
4638;SDS011;2332;38.646;-9.154;2023-09-30T13:53:33;5.97;;;3.83;;
4638;SDS011;2332;38.646;-9.154;2023-09-30T13:55:58;5.83;;;3.93;;
4638;SDS011;2332;38.646;-9.154;2023-09-30T13:58:24;7.20;;;3.50;;
4638;SDS011;2332;38.646;-9.154;2023-09-30T14:00:52;7.70;;;3.10;;
4638;SDS011;2332;38.646;-9.154;2023-09-30T14:03:18;7.53;;;3.43;;
4638;SDS011;2332;38.646;-9.154;2023-09-30T14:05:44;7.10;;;3.77;;
4638;SDS011;2332;38.646;-9.154;2023-09-30T14:08:10;6.03;;;3.10;;
4638;SDS011;2332;38.646;-9.154;2023-09-30T14:10:35;5.17;;;3.17;;
4638;SDS011;2332;38.646;-9.154;2023-09-30T14:13:01;5.43;;;3.53;;
4638;SDS011;2332;38.646;-9.154;2023-09-30T14:15:26;10.13;;;3.40;;
4638;SDS011;2332;38.646;-9.154;2023-09-30T14:17:53;9.17;;;3.63;;
4638;SDS011;2332;38.646;-9.154;2023-09-30T14:20:20;21.77;;;3.80;;
4638;SDS011;2332;38.646;-9.154;2023-09-30T14:22:46;3.83;;;3.63;;
4638;SDS011;2332;38.646;-9.154;2023-09-30T14:25:11;6.20;;;3.50;;
4638;SDS011;2332;38.646;-9.154;2023-09-30T14:27:37;8.67;;;3.90;;
4638;SDS011;2332;38.646;-9.154;2023-09-30T14:30:02;6.60;;;4.53;;
4638;SDS011;2332;38.646;-9.154;2023-09-30T14:32:29;10.63;;;3.67;;
4638;SDS011;2332;38.646;-9.154;2023-09-30T14:34:55;5.40;;;3.77;;
4638;SDS011;2332;38.646;-9.154;2023-09-30T14:37:20;5.43;;;3.47;;
4638;SDS011;2332;38.646;-9.154;2023-09-30T14:39:46;8.20;;;3.53;;
4638;SDS011;2332;38.646;-9.154;2023-09-30T14:42:11;7.17;;;3.70;;
4638;SDS011;2332;38.646;-9.154;2023-09-30T14:44:37;5.30;;;3.30;;
4638;SDS011;2332;38.646;-9.154;2023-09-30T14:47:02;4.43;;;3.37;;
4638;SDS011;2332;38.646;-9.154;2023-09-30T14:49:27;5.23;;;3.20;;
4638;SDS011;2332;38.646;-9.154;2023-09-30T14:51:53;7.30;;;3.30;;
4638;SDS011;2332;38.646;-9.154;2023-09-30T14:54:18;7.37;;;3.07;;
4638;SDS011;2332;38.646;-9.154;2023-09-30T14:56:44;5.80;;;3.53;;
4638;SDS011;2332;38.646;-9.154;2023-09-30T14:59:09;2.90;;;2.70;;
4638;SDS011;2332;38.646;-9.154;2023-09-30T15:01:36;3.63;;;3.23;;
4638;SDS011;2332;38.646;-9.154;2023-09-30T15:04:01;4.13;;;3.30;;
4638;SDS011;2332;38.646;-9.154;2023-09-30T15:06:26;3.57;;;3.00;;
4638;SDS011;2332;38.646;-9.154;2023-09-30T15:08:53;6.63;;;3.53;;
4638;SDS011;2332;38.646;-9.154;2023-09-30T15:11:19;7.80;;;3.20;;